Time;durP1;ratioP1;P1;durP2;ratioP2;P2;SDS_P1;SDS_P2;PMS_P1;PMS_P2;Temp;Humidity;BMP_temperature;BMP_pressure;BME280_temperature;BME280_humidity;BME280_pressure;Samples;Min_cycle;Max_cycle;Signal;HPM_P1;HPM_P2
2021/12/27 00:09:08;;;;;;;47.6;68.7;;;;;;;-11.6;73.9;98610;;;;
2021/12/27 00:20:08;;;;;;;47.6;68.7;;;;;;;-11.5;73.3;98600;;;;
2021/12/27 00:30:09;;;;;;;47.6;68.7;;;;;;;-11.7;74.7;98610;;;;
2021/12/27 00:40:08;;;;;;;49.8;69.8;;;;;;;-11.6;75.2;98600;;;;
2021/12/27 00:50:08;;;;;;;49.8;69.8;;;;;;;-11.4;75;98600;;;;
2021/12/27 01:00:08;;;;;;;49.8;69.8;;;;;;;-11.5;74.5;98590;;;;
2021/12/27 01:10:25;;;;;;;45.9;67.1;;;;;;;-11.5;73.5;98600;;;;
2021/12/27 01:20:08;;;;;;;45.9;67.1;;;;;;;-11.4;73.2;98600;;;;
2021/12/27 01:31:08;;;;;;;45.9;67.1;;;;;;;-11.5;72.5;98600;;;;
2021/12/27 01:41:08;;;;;;;47.7;69.5;;;;;;;-11.6;72.2;98600;;;;
2021/12/27 01:52:08;;;;;;;47.7;69.5;;;;;;;-12;72.3;98590;;;;
2021/12/27 02:03:08;;;;;;;45.6;64.7;;;;;;;-12;72;98590;;;;
2021/12/27 02:14:09;;;;;;;45.6;64.7;;;;;;;-12.3;72;98580;;;;
2021/12/27 02:24:08;;;;;;;45.6;64.7;;;;;;;-12.3;72.4;98570;;;;
2021/12/27 02:35:09;;;;;;;45.4;68.2;;;;;;;-12.6;73.7;98560;;;;
2021/12/27 02:45:08;;;;;;;45.4;68.2;;;;;;;-12.6;74.8;98570;;;;
2021/12/27 02:55:08;;;;;;;45.4;68.2;;;;;;;-12.1;73.6;98570;;;;
2021/12/27 03:06:08;;;;;;;43.2;63.4;;;;;;;-12.2;73.1;98550;;;;
2021/12/27 03:16:08;;;;;;;43.2;63.4;;;;;;;-12.3;74.7;98550;;;;
2021/12/27 03:27:08;;;;;;;43.2;63.4;;;;;;;-12.1;76.2;98560;;;;
2021/12/27 03:38:08;;;;;;;63.9;94.4;;;;;;;-11.6;75.7;98570;;;;
2021/12/27 03:49:08;;;;;;;63.9;94.4;;;;;;;-11.7;77.1;98560;;;;
2021/12/27 04:00:27;;;;;;;63.9;94.4;;;;;;;-11.8;78.9;98560;;;;
2021/12/27 04:10:08;;;;;;;71.1;90.5;;;;;;;-12;79.2;98570;;;;
2021/12/27 04:21:08;;;;;;;71.1;90.5;;;;;;;-11.8;78.5;98570;;;;
2021/12/27 04:32:08;;;;;;;58.9;74.8;;;;;;;-11.7;78.9;98580;;;;
2021/12/27 04:42:08;;;;;;;58.9;74.8;;;;;;;-11.3;78.4;98590;;;;
2021/12/27 04:53:08;;;;;;;58.9;74.8;;;;;;;-11;78.4;98590;;;;
2021/12/27 05:04:08;;;;;;;48.8;65;;;;;;;-10.9;78.5;98580;;;;
2021/12/27 05:14:08;;;;;;;48.8;65;;;;;;;-10.9;79.6;98580;;;;
2021/12/27 05:24:08;;;;;;;48.8;65;;;;;;;-10.5;79.5;98560;;;;
2021/12/27 05:35:08;;;;;;;35.9;45.5;;;;;;;-10.3;78.9;98560;;;;
2021/12/27 05:45:08;;;;;;;35.9;45.5;;;;;;;-10.1;78.9;98570;;;;
2021/12/27 05:55:08;;;;;;;35.9;45.5;;;;;;;-9.5;78.8;98570;;;;
2021/12/27 06:05:08;;;;;;;34.5;42.8;;;;;;;-9.1;78.2;98570;;;;
2021/12/27 06:15:08;;;;;;;34.5;42.8;;;;;;;-9.2;78.5;98560;;;;
2021/12/27 06:25:08;;;;;;;34.5;42.8;;;;;;;-9;78.3;98550;;;;
2021/12/27 06:35:10;;;;;;;35;45;;;;;;;-8.7;77.9;98550;;;;
2021/12/27 06:45:08;;;;;;;35;45;;;;;;;-8.7;77.9;98560;;;;
2021/12/27 06:55:08;;;;;;;35;45;;;;;;;-8.8;78.3;98560;;;;
2021/12/27 07:06:08;;;;;;;31;36.6;;;;;;;-8.7;78.7;98540;;;;
2021/12/27 07:17:08;;;;;;;31;36.6;;;;;;;-8.6;78.5;98540;;;;
2021/12/27 07:27:08;;;;;;;31;36.6;;;;;;;-8.6;78;98550;;;;
2021/12/27 07:37:08;;;;;;;28.5;38.3;;;;;;;-8.6;78.3;98540;;;;
2021/12/27 07:48:10;;;;;;;28.5;38.3;;;;;;;-8.7;78.8;98520;;;;
2021/12/27 07:58:08;;;;;;;28.5;38.3;;;;;;;-8.3;78.1;98520;;;;
2021/12/27 08:09:08;;;;;;;25;31.2;;;;;;;-8.4;79;98520;;;;
2021/12/27 08:19:08;;;;;;;25;31.2;;;;;;;-8.2;79.2;98510;;;;
2021/12/27 08:29:08;;;;;;;25;31.2;;;;;;;-7.9;79.1;98490;;;;
2021/12/27 08:40:08;;;;;;;26;32.1;;;;;;;-7.9;79.3;98470;;;;
2021/12/27 08:50:08;;;;;;;26;32.1;;;;;;;-7.5;78.6;98480;;;;
2021/12/27 09:01:08;;;;;;;28.2;39.4;;;;;;;-7.1;78;98470;;;;
2021/12/27 09:12:08;;;;;;;28.2;39.4;;;;;;;-7.3;78.2;98460;;;;
2021/12/27 09:23:08;;;;;;;28.2;39.4;;;;;;;-6.9;77.9;98450;;;;
2021/12/27 09:34:08;;;;;;;36;44.3;;;;;;;-6.6;77.6;98440;;;;
2021/12/27 09:44:08;;;;;;;36;44.3;;;;;;;-6.7;77.5;98440;;;;
2021/12/27 09:55:09;;;;;;;36;44.3;;;;;;;-6.9;77.9;98430;;;;
2021/12/27 10:06:09;;;;;;;41.5;50.4;;;;;;;-6.5;77.7;98430;;;;
2021/12/27 10:17:10;;;;;;;41.5;50.4;;;;;;;-6.7;77.4;98430;;;;
2021/12/27 10:27:08;;;;;;;41.5;50.4;;;;;;;-6.3;77.4;98420;;;;
2021/12/27 10:38:08;;;;;;;43.7;65.4;;;;;;;-6;76.7;98410;;;;
2021/12/27 10:48:09;;;;;;;43.7;65.4;;;;;;;-5.7;76.6;98400;;;;
2021/12/27 10:58:08;;;;;;;43.7;65.4;;;;;;;-5.6;76.6;98390;;;;
2021/12/27 11:09:09;;;;;;;48.4;59.8;;;;;;;-5.8;76.5;98380;;;;
2021/12/27 11:20:09;;;;;;;48.4;59.8;;;;;;;-5.2;75.9;98360;;;;
2021/12/27 11:30:09;;;;;;;47.9;61.7;;;;;;;-5;75.2;98350;;;;
2021/12/27 11:41:08;;;;;;;47.9;61.7;;;;;;;-5;74.5;98340;;;;
2021/12/27 11:51:09;;;;;;;47.9;61.7;;;;;;;-5.3;74.5;98350;;;;
2021/12/27 12:02:08;;;;;;;43.3;48.6;;;;;;;-5.4;75;98350;;;;
2021/12/27 12:12:11;;;;;;;43.3;48.6;;;;;;;-5.4;75.3;98330;;;;
2021/12/27 12:22:08;;;;;;;43.3;48.6;;;;;;;-5.2;74.5;98320;;;;
2021/12/27 12:32:08;;;;;;;39.2;50.2;;;;;;;-5.5;74.9;98320;;;;
2021/12/27 12:43:08;;;;;;;39.2;50.2;;;;;;;-5.5;75.6;98310;;;;
2021/12/27 12:53:09;;;;;;;39.2;50.2;;;;;;;-6;76.7;98310;;;;
2021/12/27 13:04:08;;;;;;;38.6;51.4;;;;;;;-6.4;77.7;98290;;;;
2021/12/27 13:14:10;;;;;;;38.6;51.4;;;;;;;-6;77.3;98290;;;;
2021/12/27 13:24:08;;;;;;;38.6;51.4;;;;;;;-6.1;76.6;98300;;;;
2021/12/27 13:34:08;;;;;;;38.5;45.8;;;;;;;-6;77;98300;;;;
2021/12/27 13:45:09;;;;;;;38.5;45.8;;;;;;;-5.9;77.2;98290;;;;
2021/12/27 13:55:08;;;;;;;38.5;45.8;;;;;;;-6.3;78.1;98290;;;;
2021/12/27 14:06:09;;;;;;;48.1;60.9;;;;;;;-6.4;77.9;98300;;;;
2021/12/27 14:16:08;;;;;;;48.1;60.9;;;;;;;-6.4;78.2;98300;;;;
2021/12/27 14:26:08;;;;;;;48.1;60.9;;;;;;;-6.4;78;98300;;;;
2021/12/27 14:37:08;;;;;;;47.5;60.3;;;;;;;-6.2;78.2;98320;;;;
2021/12/27 14:48:08;;;;;;;47.5;60.3;;;;;;;-6.2;78.1;98310;;;;
2021/12/27 14:58:11;;;;;;;47.5;60.3;;;;;;;-6.2;78.3;98310;;;;
2021/12/27 15:09:08;;;;;;;50.6;60.9;;;;;;;-6.3;78.4;98320;;;;
2021/12/27 15:19:09;;;;;;;50.6;60.9;;;;;;;-6.2;78.3;98320;;;;
2021/12/27 15:29:09;;;;;;;53.7;71;;;;;;;-6.4;78.7;98330;;;;
2021/12/27 15:40:09;;;;;;;53.7;71;;;;;;;-6.5;78.7;98320;;;;
2021/12/27 15:50:08;;;;;;;53.7;71;;;;;;;-6;78.2;98330;;;;
2021/12/27 16:00:08;;;;;;;56.4;70.5;;;;;;;-6.2;78.4;98330;;;;
2021/12/27 16:10:09;;;;;;;56.4;70.5;;;;;;;-6.3;78.7;98320;;;;
2021/12/27 16:21:09;;;;;;;56.4;70.5;;;;;;;-6.2;78.5;98320;;;;
2021/12/27 16:32:08;;;;;;;50.8;69.4;;;;;;;-6.1;78.6;98330;;;;
2021/12/27 16:43:11;;;;;;;50.8;69.4;;;;;;;-6.2;78.6;98330;;;;
2021/12/27 16:53:08;;;;;;;50.8;69.4;;;;;;;-6.2;78.6;98340;;;;
2021/12/27 17:04:10;;;;;;;49.7;64;;;;;;;-6.3;78.8;98340;;;;
2021/12/27 17:15:11;;;;;;;49.7;64;;;;;;;-6.1;78.5;98340;;;;
2021/12/27 17:25:08;;;;;;;49.7;64;;;;;;;-5.9;78.3;98330;;;;
2021/12/27 17:36:09;;;;;;;52.7;67.7;;;;;;;-5.9;77.8;98330;;;;
2021/12/27 17:46:09;;;;;;;52.7;67.7;;;;;;;-5.9;77.6;98330;;;;
2021/12/27 17:57:08;;;;;;;52.7;67.7;;;;;;;-5.9;78;98330;;;;
2021/12/27 18:07:09;;;;;;;55.3;68.6;;;;;;;-5.8;77.7;98330;;;;
2021/12/27 18:17:09;;;;;;;55.3;68.6;;;;;;;-5.6;77.6;98330;;;;
2021/12/27 18:28:09;;;;;;;60;78.8;;;;;;;-5.6;77.7;98320;;;;
2021/12/27 18:39:09;;;;;;;60;78.8;;;;;;;-5.5;77.4;98320;;;;
2021/12/27 18:49:09;;;;;;;60;78.8;;;;;;;-5.5;77.4;98320;;;;
2021/12/27 18:59:09;;;;;;;59.5;75.3;;;;;;;-5.4;76.9;98310;;;;
2021/12/27 19:09:09;;;;;;;59.5;75.3;;;;;;;-5.4;77;98310;;;;
2021/12/27 19:19:09;;;;;;;59.5;75.3;;;;;;;-5.5;77.5;98310;;;;
2021/12/27 19:29:09;;;;;;;55;68.8;;;;;;;-5.4;77.5;98300;;;;
2021/12/27 19:40:09;;;;;;;55;68.8;;;;;;;-5.4;77.3;98310;;;;
2021/12/27 19:51:09;;;;;;;55;68.8;;;;;;;-5.3;78;98320;;;;
2021/12/27 20:01:09;;;;;;;57.4;71.9;;;;;;;-5.3;77.8;98310;;;;
2021/12/27 20:11:09;;;;;;;57.4;71.9;;;;;;;-5.3;78;98300;;;;
2021/12/27 20:22:11;;;;;;;57.4;71.9;;;;;;;-5.3;78.3;98310;;;;
2021/12/27 20:32:09;;;;;;;54.8;65.4;;;;;;;-5;77.6;98310;;;;
2021/12/27 20:42:09;;;;;;;54.8;65.4;;;;;;;-4.9;77.7;98310;;;;
2021/12/27 20:53:09;;;;;;;54.8;65.4;;;;;;;-5.1;77.8;98300;;;;
2021/12/27 21:04:09;;;;;;;54.7;69.5;;;;;;;-5.1;78.1;98290;;;;
2021/12/27 21:15:09;;;;;;;54.7;69.5;;;;;;;-5.1;78.2;98270;;;;
2021/12/27 21:25:09;;;;;;;54.7;69.5;;;;;;;-5;78.5;98280;;;;
2021/12/27 21:35:09;;;;;;;53.3;61.5;;;;;;;-5;78.9;98280;;;;
2021/12/27 21:46:09;;;;;;;53.3;61.5;;;;;;;-4.9;78.5;98270;;;;
2021/12/27 21:56:09;;;;;;;53.3;61.5;;;;;;;-4.7;78.1;98280;;;;
2021/12/27 22:06:09;;;;;;;54.4;72.9;;;;;;;-4.7;78.1;98270;;;;
2021/12/27 22:16:09;;;;;;;54.4;72.9;;;;;;;-4.8;78.5;98260;;;;
2021/12/27 22:26:09;;;;;;;54.4;72.9;;;;;;;-4.8;78.6;98260;;;;
2021/12/27 22:37:09;;;;;;;55.3;67.2;;;;;;;-4.8;79.3;98250;;;;
2021/12/27 22:48:09;;;;;;;55.3;67.2;;;;;;;-4.8;79.5;98250;;;;
2021/12/27 22:58:09;;;;;;;52.8;69;;;;;;;-4.8;79.3;98230;;;;
2021/12/27 23:09:09;;;;;;;52.8;69;;;;;;;-4.8;79.3;98230;;;;
2021/12/27 23:20:09;;;;;;;52.8;69;;;;;;;-4.8;79.6;98230;;;;
2021/12/27 23:31:09;;;;;;;49.1;64.6;;;;;;;-4.7;79.3;98250;;;;
2021/12/27 23:42:09;;;;;;;49.1;64.6;;;;;;;-4.6;79;98250;;;;
2021/12/27 23:52:09;;;;;;;49.1;64.6;;;;;;;-4.5;78.9;98250;;;;
